sensor_id;sensor_type;location;lat;lon;timestamp;P1;durP1;ratioP1;P2;durP2;ratioP2
20910;SDS011;10615;42.702;23.314;2024-01-30T00:00:41;7.28;;;4.70;;
20910;SDS011;10615;42.702;23.314;2024-01-30T00:01:42;7.80;;;5.10;;
20910;SDS011;10615;42.702;23.314;2024-01-30T00:02:43;8.45;;;4.70;;
20910;SDS011;10615;42.702;23.314;2024-01-30T00:03:45;8.32;;;5.47;;
20910;SDS011;10615;42.702;23.314;2024-01-30T00:04:46;8.32;;;4.72;;
20910;SDS011;10615;42.702;23.314;2024-01-30T00:05:47;5.57;;;4.35;;
20910;SDS011;10615;42.702;23.314;2024-01-30T00:06:48;6.50;;;4.80;;
20910;SDS011;10615;42.702;23.314;2024-01-30T00:07:48;7.85;;;4.57;;
20910;SDS011;10615;42.702;23.314;2024-01-30T00:08:50;9.13;;;5.35;;
20910;SDS011;10615;42.702;23.314;2024-01-30T00:09:51;6.10;;;4.45;;
20910;SDS011;10615;42.702;23.314;2024-01-30T00:10:51;7.55;;;4.63;;
20910;SDS011;10615;42.702;23.314;2024-01-30T00:11:52;6.25;;;4.30;;
20910;SDS011;10615;42.702;23.314;2024-01-30T00:12:53;6.28;;;4.40;;
20910;SDS011;10615;42.702;23.314;2024-01-30T00:13:54;6.45;;;4.35;;
20910;SDS011;10615;42.702;23.314;2024-01-30T00:14:58;5.65;;;4.35;;
20910;SDS011;10615;42.702;23.314;2024-01-30T00:15:58;5.75;;;4.18;;
20910;SDS011;10615;42.702;23.314;2024-01-30T00:16:59;6.25;;;4.57;;
20910;SDS011;10615;42.702;23.314;2024-01-30T00:18:00;6.18;;;4.28;;
20910;SDS011;10615;42.702;23.314;2024-01-30T00:19:01;6.45;;;4.65;;
20910;SDS011;10615;42.702;23.314;2024-01-30T00:20:03;6.95;;;4.70;;
20910;SDS011;10615;42.702;23.314;2024-01-30T00:21:05;5.35;;;4.05;;
20910;SDS011;10615;42.702;23.314;2024-01-30T00:22:06;6.60;;;4.70;;
20910;SDS011;10615;42.702;23.314;2024-01-30T00:23:07;6.93;;;4.45;;
20910;SDS011;10615;42.702;23.314;2024-01-30T00:24:08;6.72;;;4.32;;
20910;SDS011;10615;42.702;23.314;2024-01-30T00:25:09;6.70;;;4.55;;
20910;SDS011;10615;42.702;23.314;2024-01-30T00:26:10;6.50;;;4.70;;
20910;SDS011;10615;42.702;23.314;2024-01-30T00:27:11;6.55;;;4.07;;
20910;SDS011;10615;42.702;23.314;2024-01-30T00:28:12;6.55;;;4.18;;
20910;SDS011;10615;42.702;23.314;2024-01-30T00:29:12;6.88;;;4.38;;
20910;SDS011;10615;42.702;23.314;2024-01-30T00:30:20;7.28;;;4.60;;
20910;SDS011;10615;42.702;23.314;2024-01-30T00:31:20;6.68;;;4.78;;
20910;SDS011;10615;42.702;23.314;2024-01-30T00:32:21;6.50;;;4.50;;
20910;SDS011;10615;42.702;23.314;2024-01-30T00:33:23;6.70;;;4.80;;
20910;SDS011;10615;42.702;23.314;2024-01-30T00:34:24;6.85;;;4.53;;
20910;SDS011;10615;42.702;23.314;2024-01-30T00:35:24;6.72;;;4.75;;
20910;SDS011;10615;42.702;23.314;2024-01-30T00:36:25;6.47;;;4.60;;
20910;SDS011;10615;42.702;23.314;2024-01-30T00:37:29;7.38;;;5.00;;
20910;SDS011;10615;42.702;23.314;2024-01-30T00:38:31;6.45;;;4.40;;
20910;SDS011;10615;42.702;23.314;2024-01-30T00:39:32;7.68;;;4.20;;
20910;SDS011;10615;42.702;23.314;2024-01-30T00:40:33;7.05;;;4.80;;
20910;SDS011;10615;42.702;23.314;2024-01-30T00:41:34;6.32;;;4.50;;
20910;SDS011;10615;42.702;23.314;2024-01-30T00:42:34;6.65;;;4.40;;
20910;SDS011;10615;42.702;23.314;2024-01-30T00:43:35;7.55;;;4.88;;
20910;SDS011;10615;42.702;23.314;2024-01-30T00:44:37;7.63;;;4.35;;
20910;SDS011;10615;42.702;23.314;2024-01-30T00:45:38;5.70;;;4.30;;
20910;SDS011;10615;42.702;23.314;2024-01-30T00:46:39;9.93;;;5.57;;
20910;SDS011;10615;42.702;23.314;2024-01-30T00:47:40;7.53;;;5.00;;
20910;SDS011;10615;42.702;23.314;2024-01-30T00:48:41;8.40;;;5.13;;
20910;SDS011;10615;42.702;23.314;2024-01-30T00:49:41;8.02;;;5.13;;
20910;SDS011;10615;42.702;23.314;2024-01-30T00:50:42;8.50;;;5.38;;
20910;SDS011;10615;42.702;23.314;2024-01-30T00:51:43;7.70;;;4.68;;
20910;SDS011;10615;42.702;23.314;2024-01-30T00:52:43;9.65;;;5.40;;
20910;SDS011;10615;42.702;23.314;2024-01-30T00:53:45;7.07;;;4.47;;
20910;SDS011;10615;42.702;23.314;2024-01-30T00:54:45;7.22;;;4.70;;
20910;SDS011;10615;42.702;23.314;2024-01-30T00:55:46;7.47;;;4.72;;
20910;SDS011;10615;42.702;23.314;2024-01-30T00:56:47;7.07;;;4.30;;
20910;SDS011;10615;42.702;23.314;2024-01-30T00:57:48;6.95;;;4.63;;
20910;SDS011;10615;42.702;23.314;2024-01-30T00:58:49;7.70;;;4.68;;
20910;SDS011;10615;42.702;23.314;2024-01-30T00:59:49;5.57;;;4.00;;
20910;SDS011;10615;42.702;23.314;2024-01-30T01:00:50;6.47;;;4.47;;
20910;SDS011;10615;42.702;23.314;2024-01-30T01:01:52;7.07;;;4.50;;
20910;SDS011;10615;42.702;23.314;2024-01-30T01:02:52;6.47;;;4.47;;
20910;SDS011;10615;42.702;23.314;2024-01-30T01:03:53;6.18;;;4.43;;
20910;SDS011;10615;42.702;23.314;2024-01-30T01:04:54;6.93;;;4.38;;
20910;SDS011;10615;42.702;23.314;2024-01-30T01:05:54;6.20;;;4.38;;
20910;SDS011;10615;42.702;23.314;2024-01-30T01:06:55;7.53;;;4.28;;
20910;SDS011;10615;42.702;23.314;2024-01-30T01:07:56;7.28;;;4.30;;
20910;SDS011;10615;42.702;23.314;2024-01-30T01:08:57;5.20;;;3.67;;
20910;SDS011;10615;42.702;23.314;2024-01-30T01:09:57;6.72;;;4.43;;
20910;SDS011;10615;42.702;23.314;2024-01-30T01:10:58;6.82;;;4.38;;
20910;SDS011;10615;42.702;23.314;2024-01-30T01:11:59;7.03;;;4.43;;
20910;SDS011;10615;42.702;23.314;2024-01-30T01:12:59;6.43;;;3.95;;
20910;SDS011;10615;42.702;23.314;2024-01-30T01:14:00;5.43;;;4.07;;
20910;SDS011;10615;42.702;23.314;2024-01-30T01:15:01;5.97;;;3.90;;
20910;SDS011;10615;42.702;23.314;2024-01-30T01:16:02;5.70;;;4.07;;
20910;SDS011;10615;42.702;23.314;2024-01-30T01:17:04;7.47;;;4.10;;
20910;SDS011;10615;42.702;23.314;2024-01-30T01:18:04;5.78;;;4.00;;
20910;SDS011;10615;42.702;23.314;2024-01-30T01:19:05;7.35;;;4.30;;
20910;SDS011;10615;42.702;23.314;2024-01-30T01:20:06;6.82;;;4.50;;
20910;SDS011;10615;42.702;23.314;2024-01-30T01:21:08;7.30;;;4.35;;
20910;SDS011;10615;42.702;23.314;2024-01-30T01:22:08;7.05;;;4.72;;
20910;SDS011;10615;42.702;23.314;2024-01-30T01:23:09;7.22;;;4.63;;
20910;SDS011;10615;42.702;23.314;2024-01-30T01:24:10;7.13;;;4.78;;
20910;SDS011;10615;42.702;23.314;2024-01-30T01:25:11;8.32;;;5.18;;
20910;SDS011;10615;42.702;23.314;2024-01-30T01:26:11;7.40;;;4.82;;
20910;SDS011;10615;42.702;23.314;2024-01-30T01:27:12;8.10;;;4.82;;
20910;SDS011;10615;42.702;23.314;2024-01-30T01:28:13;7.65;;;4.72;;
20910;SDS011;10615;42.702;23.314;2024-01-30T01:29:14;6.50;;;4.28;;
20910;SDS011;10615;42.702;23.314;2024-01-30T01:30:15;6.78;;;4.65;;
20910;SDS011;10615;42.702;23.314;2024-01-30T01:31:21;6.85;;;4.63;;
20910;SDS011;10615;42.702;23.314;2024-01-30T01:32:24;7.03;;;4.90;;
20910;SDS011;10615;42.702;23.314;2024-01-30T01:33:26;7.75;;;4.43;;
20910;SDS011;10615;42.702;23.314;2024-01-30T01:34:26;8.85;;;4.85;;
20910;SDS011;10615;42.702;23.314;2024-01-30T01:35:27;6.05;;;4.15;;
20910;SDS011;10615;42.702;23.314;2024-01-30T01:36:28;8.90;;;5.05;;
20910;SDS011;10615;42.702;23.314;2024-01-30T01:37:29;9.65;;;5.30;;
20910;SDS011;10615;42.702;23.314;2024-01-30T01:38:30;8.50;;;5.00;;
20910;SDS011;10615;42.702;23.314;2024-01-30T01:39:31;7.22;;;4.60;;
20910;SDS011;10615;42.702;23.314;2024-01-30T01:40:31;9.43;;;5.63;;
20910;SDS011;10615;42.702;23.314;2024-01-30T01:41:32;9.45;;;5.85;;
20910;SDS011;10615;42.702;23.314;2024-01-30T01:42:33;9.98;;;5.22;;
20910;SDS011;10615;42.702;23.314;2024-01-30T01:43:34;8.98;;;5.15;;
20910;SDS011;10615;42.702;23.314;2024-01-30T01:44:34;9.50;;;5.38;;
20910;SDS011;10615;42.702;23.314;2024-01-30T01:45:35;9.18;;;5.00;;
20910;SDS011;10615;42.702;23.314;2024-01-30T01:46:36;9.48;;;5.35;;
20910;SDS011;10615;42.702;23.314;2024-01-30T01:47:37;10.30;;;6.10;;
20910;SDS011;10615;42.702;23.314;2024-01-30T01:48:38;8.55;;;4.93;;
20910;SDS011;10615;42.702;23.314;2024-01-30T01:49:39;9.27;;;5.03;;
20910;SDS011;10615;42.702;23.314;2024-01-30T01:50:41;6.32;;;4.63;;
20910;SDS011;10615;42.702;23.314;2024-01-30T01:51:42;9.02;;;4.60;;
20910;SDS011;10615;42.702;23.314;2024-01-30T01:52:44;9.63;;;5.18;;
20910;SDS011;10615;42.702;23.314;2024-01-30T01:53:49;6.32;;;4.43;;
20910;SDS011;10615;42.702;23.314;2024-01-30T01:54:50;6.03;;;4.40;;
20910;SDS011;10615;42.702;23.314;2024-01-30T01:55:51;7.07;;;4.65;;
20910;SDS011;10615;42.702;23.314;2024-01-30T01:56:53;6.30;;;4.20;;
20910;SDS011;10615;42.702;23.314;2024-01-30T01:57:54;6.10;;;4.40;;
20910;SDS011;10615;42.702;23.314;2024-01-30T01:58:56;6.63;;;4.57;;
20910;SDS011;10615;42.702;23.314;2024-01-30T02:00:02;6.10;;;4.30;;
20910;SDS011;10615;42.702;23.314;2024-01-30T02:01:04;6.70;;;4.20;;
20910;SDS011;10615;42.702;23.314;2024-01-30T02:02:05;5.30;;;3.90;;
20910;SDS011;10615;42.702;23.314;2024-01-30T02:03:11;6.13;;;4.20;;
20910;SDS011;10615;42.702;23.314;2024-01-30T02:04:13;5.88;;;4.00;;
20910;SDS011;10615;42.702;23.314;2024-01-30T02:05:15;5.35;;;4.07;;
20910;SDS011;10615;42.702;23.314;2024-01-30T02:06:16;6.30;;;4.07;;
20910;SDS011;10615;42.702;23.314;2024-01-30T02:07:17;7.57;;;4.68;;
20910;SDS011;10615;42.702;23.314;2024-01-30T02:08:18;7.45;;;4.25;;
20910;SDS011;10615;42.702;23.314;2024-01-30T02:09:19;7.00;;;4.72;;
20910;SDS011;10615;42.702;23.314;2024-01-30T02:10:20;6.15;;;4.53;;
20910;SDS011;10615;42.702;23.314;2024-01-30T02:11:21;7.93;;;4.35;;
20910;SDS011;10615;42.702;23.314;2024-01-30T02:12:23;7.03;;;4.75;;
20910;SDS011;10615;42.702;23.314;2024-01-30T02:13:23;7.63;;;4.85;;
20910;SDS011;10615;42.702;23.314;2024-01-30T02:14:24;6.93;;;4.95;;
20910;SDS011;10615;42.702;23.314;2024-01-30T02:15:25;7.25;;;4.60;;
20910;SDS011;10615;42.702;23.314;2024-01-30T02:16:26;6.07;;;4.40;;
20910;SDS011;10615;42.702;23.314;2024-01-30T02:17:27;9.48;;;5.20;;
20910;SDS011;10615;42.702;23.314;2024-01-30T02:18:28;6.63;;;4.55;;
20910;SDS011;10615;42.702;23.314;2024-01-30T02:19:29;6.10;;;4.30;;
20910;SDS011;10615;42.702;23.314;2024-01-30T02:20:29;8.05;;;4.68;;
20910;SDS011;10615;42.702;23.314;2024-01-30T02:21:31;7.63;;;4.70;;
20910;SDS011;10615;42.702;23.314;2024-01-30T02:22:33;7.38;;;4.40;;
20910;SDS011;10615;42.702;23.314;2024-01-30T02:23:35;7.50;;;4.80;;
20910;SDS011;10615;42.702;23.314;2024-01-30T02:24:36;5.57;;;3.97;;
20910;SDS011;10615;42.702;23.314;2024-01-30T02:25:40;7.80;;;4.93;;
20910;SDS011;10615;42.702;23.314;2024-01-30T02:26:47;5.60;;;4.40;;
20910;SDS011;10615;42.702;23.314;2024-01-30T02:27:48;9.48;;;4.70;;
20910;SDS011;10615;42.702;23.314;2024-01-30T02:28:48;7.03;;;4.38;;
20910;SDS011;10615;42.702;23.314;2024-01-30T02:29:49;8.15;;;4.72;;
20910;SDS011;10615;42.702;23.314;2024-01-30T02:30:50;5.05;;;3.88;;
20910;SDS011;10615;42.702;23.314;2024-01-30T02:31:51;6.10;;;4.25;;
20910;SDS011;10615;42.702;23.314;2024-01-30T02:32:52;6.53;;;4.05;;
20910;SDS011;10615;42.702;23.314;2024-01-30T02:33:53;7.20;;;4.55;;
20910;SDS011;10615;42.702;23.314;2024-01-30T02:34:53;6.88;;;4.30;;
20910;SDS011;10615;42.702;23.314;2024-01-30T02:35:54;5.95;;;4.07;;
20910;SDS011;10615;42.702;23.314;2024-01-30T02:36:55;6.88;;;4.40;;
20910;SDS011;10615;42.702;23.314;2024-01-30T02:37:56;6.25;;;4.45;;
20910;SDS011;10615;42.702;23.314;2024-01-30T02:38:56;6.22;;;4.57;;
20910;SDS011;10615;42.702;23.314;2024-01-30T02:39:57;7.55;;;4.45;;
20910;SDS011;10615;42.702;23.314;2024-01-30T02:40:58;6.63;;;4.82;;
20910;SDS011;10615;42.702;23.314;2024-01-30T02:41:58;6.25;;;4.30;;
20910;SDS011;10615;42.702;23.314;2024-01-30T02:42:59;6.57;;;4.85;;
20910;SDS011;10615;42.702;23.314;2024-01-30T02:44:02;6.07;;;4.47;;
20910;SDS011;10615;42.702;23.314;2024-01-30T02:45:05;6.70;;;4.75;;
20910;SDS011;10615;42.702;23.314;2024-01-30T02:46:06;6.78;;;4.45;;
20910;SDS011;10615;42.702;23.314;2024-01-30T02:47:07;6.07;;;4.50;;
20910;SDS011;10615;42.702;23.314;2024-01-30T02:48:08;6.35;;;4.57;;
20910;SDS011;10615;42.702;23.314;2024-01-30T02:49:09;6.78;;;4.28;;
20910;SDS011;10615;42.702;23.314;2024-01-30T02:50:09;6.25;;;4.30;;
20910;SDS011;10615;42.702;23.314;2024-01-30T02:51:10;6.38;;;4.57;;
20910;SDS011;10615;42.702;23.314;2024-01-30T02:52:11;7.95;;;4.70;;
20910;SDS011;10615;42.702;23.314;2024-01-30T02:53:12;5.70;;;3.88;;
20910;SDS011;10615;42.702;23.314;2024-01-30T02:54:13;6.53;;;4.63;;
20910;SDS011;10615;42.702;23.314;2024-01-30T02:55:13;7.07;;;4.65;;
20910;SDS011;10615;42.702;23.314;2024-01-30T02:56:17;6.15;;;4.50;;
20910;SDS011;10615;42.702;23.314;2024-01-30T02:57:18;5.90;;;4.30;;
20910;SDS011;10615;42.702;23.314;2024-01-30T02:58:19;6.03;;;4.35;;
20910;SDS011;10615;42.702;23.314;2024-01-30T02:59:19;7.32;;;4.43;;
20910;SDS011;10615;42.702;23.314;2024-01-30T03:00:20;5.18;;;4.03;;
20910;SDS011;10615;42.702;23.314;2024-01-30T03:01:21;6.35;;;3.90;;
20910;SDS011;10615;42.702;23.314;2024-01-30T03:02:22;6.00;;;4.18;;
20910;SDS011;10615;42.702;23.314;2024-01-30T03:03:22;7.10;;;4.47;;
20910;SDS011;10615;42.702;23.314;2024-01-30T03:04:23;6.57;;;4.70;;
20910;SDS011;10615;42.702;23.314;2024-01-30T03:05:24;6.80;;;4.47;;
20910;SDS011;10615;42.702;23.314;2024-01-30T03:06:25;6.72;;;4.70;;
20910;SDS011;10615;42.702;23.314;2024-01-30T03:07:25;5.93;;;4.43;;
20910;SDS011;10615;42.702;23.314;2024-01-30T03:08:26;7.60;;;4.30;;
20910;SDS011;10615;42.702;23.314;2024-01-30T03:09:27;6.60;;;4.60;;
20910;SDS011;10615;42.702;23.314;2024-01-30T03:10:28;6.85;;;4.72;;
20910;SDS011;10615;42.702;23.314;2024-01-30T03:11:29;6.45;;;4.20;;
20910;SDS011;10615;42.702;23.314;2024-01-30T03:12:30;7.65;;;5.35;;
20910;SDS011;10615;42.702;23.314;2024-01-30T03:13:30;6.30;;;4.30;;
20910;SDS011;10615;42.702;23.314;2024-01-30T03:14:31;8.27;;;4.82;;
20910;SDS011;10615;42.702;23.314;2024-01-30T03:15:32;6.43;;;4.63;;
20910;SDS011;10615;42.702;23.314;2024-01-30T03:16:32;8.75;;;4.57;;
20910;SDS011;10615;42.702;23.314;2024-01-30T03:17:33;4.90;;;3.72;;
20910;SDS011;10615;42.702;23.314;2024-01-30T03:18:34;7.05;;;4.22;;
20910;SDS011;10615;42.702;23.314;2024-01-30T03:19:34;6.28;;;4.30;;
20910;SDS011;10615;42.702;23.314;2024-01-30T03:20:35;5.25;;;4.00;;
20910;SDS011;10615;42.702;23.314;2024-01-30T03:21:36;7.40;;;4.75;;
20910;SDS011;10615;42.702;23.314;2024-01-30T03:22:37;5.97;;;4.07;;
20910;SDS011;10615;42.702;23.314;2024-01-30T03:23:37;5.82;;;4.30;;
20910;SDS011;10615;42.702;23.314;2024-01-30T03:24:38;6.63;;;4.60;;
20910;SDS011;10615;42.702;23.314;2024-01-30T03:25:39;6.85;;;4.32;;
20910;SDS011;10615;42.702;23.314;2024-01-30T03:26:40;6.90;;;4.30;;
20910;SDS011;10615;42.702;23.314;2024-01-30T03:27:40;7.07;;;4.40;;
20910;SDS011;10615;42.702;23.314;2024-01-30T03:28:41;5.75;;;4.07;;
20910;SDS011;10615;42.702;23.314;2024-01-30T03:29:42;6.93;;;4.32;;
20910;SDS011;10615;42.702;23.314;2024-01-30T03:30:43;9.90;;;4.47;;
20910;SDS011;10615;42.702;23.314;2024-01-30T03:31:43;6.82;;;4.28;;
20910;SDS011;10615;42.702;23.314;2024-01-30T03:32:44;6.55;;;4.47;;
20910;SDS011;10615;42.702;23.314;2024-01-30T03:33:45;6.40;;;4.32;;
20910;SDS011;10615;42.702;23.314;2024-01-30T03:34:45;6.80;;;4.40;;
20910;SDS011;10615;42.702;23.314;2024-01-30T03:35:46;6.10;;;4.32;;
20910;SDS011;10615;42.702;23.314;2024-01-30T03:36:47;6.00;;;4.25;;
20910;SDS011;10615;42.702;23.314;2024-01-30T03:37:47;5.60;;;3.92;;
20910;SDS011;10615;42.702;23.314;2024-01-30T03:38:48;6.53;;;4.28;;
20910;SDS011;10615;42.702;23.314;2024-01-30T03:39:49;7.10;;;4.30;;
20910;SDS011;10615;42.702;23.314;2024-01-30T03:40:50;7.78;;;4.43;;
20910;SDS011;10615;42.702;23.314;2024-01-30T03:41:50;8.52;;;5.10;;
20910;SDS011;10615;42.702;23.314;2024-01-30T03:42:51;8.18;;;4.22;;
20910;SDS011;10615;42.702;23.314;2024-01-30T03:43:52;7.97;;;4.53;;
20910;SDS011;10615;42.702;23.314;2024-01-30T03:44:53;6.47;;;4.05;;
20910;SDS011;10615;42.702;23.314;2024-01-30T03:45:55;6.13;;;4.07;;
20910;SDS011;10615;42.702;23.314;2024-01-30T03:46:55;6.43;;;4.22;;
20910;SDS011;10615;42.702;23.314;2024-01-30T03:47:56;6.22;;;4.22;;
20910;SDS011;10615;42.702;23.314;2024-01-30T03:48:57;6.72;;;4.70;;
20910;SDS011;10615;42.702;23.314;2024-01-30T03:49:57;7.68;;;4.40;;
20910;SDS011;10615;42.702;23.314;2024-01-30T03:50:58;6.63;;;4.18;;
20910;SDS011;10615;42.702;23.314;2024-01-30T03:51:59;7.57;;;4.90;;
20910;SDS011;10615;42.702;23.314;2024-01-30T03:52:59;6.85;;;4.00;;
20910;SDS011;10615;42.702;23.314;2024-01-30T03:54:00;8.02;;;4.57;;
20910;SDS011;10615;42.702;23.314;2024-01-30T03:55:01;7.32;;;4.22;;
20910;SDS011;10615;42.702;23.314;2024-01-30T03:56:02;8.02;;;4.40;;
20910;SDS011;10615;42.702;23.314;2024-01-30T03:57:03;6.22;;;4.07;;
20910;SDS011;10615;42.702;23.314;2024-01-30T03:58:04;4.97;;;3.70;;
20910;SDS011;10615;42.702;23.314;2024-01-30T03:59:05;6.47;;;4.28;;
20910;SDS011;10615;42.702;23.314;2024-01-30T04:00:05;5.93;;;4.10;;
20910;SDS011;10615;42.702;23.314;2024-01-30T04:01:07;5.60;;;3.88;;
20910;SDS011;10615;42.702;23.314;2024-01-30T04:02:08;4.93;;;3.80;;
20910;SDS011;10615;42.702;23.314;2024-01-30T04:03:09;6.18;;;3.90;;
20910;SDS011;10615;42.702;23.314;2024-01-30T04:04:10;6.53;;;4.47;;
20910;SDS011;10615;42.702;23.314;2024-01-30T04:05:11;6.85;;;3.90;;
20910;SDS011;10615;42.702;23.314;2024-01-30T04:06:12;6.85;;;3.97;;
20910;SDS011;10615;42.702;23.314;2024-01-30T04:07:13;5.65;;;3.50;;
20910;SDS011;10615;42.702;23.314;2024-01-30T04:08:13;6.65;;;4.13;;
20910;SDS011;10615;42.702;23.314;2024-01-30T04:09:14;6.00;;;3.67;;
20910;SDS011;10615;42.702;23.314;2024-01-30T04:10:15;5.13;;;3.63;;
20910;SDS011;10615;42.702;23.314;2024-01-30T04:11:18;6.15;;;3.75;;
20910;SDS011;10615;42.702;23.314;2024-01-30T04:12:19;5.50;;;3.83;;
20910;SDS011;10615;42.702;23.314;2024-01-30T04:13:20;7.28;;;3.88;;
20910;SDS011;10615;42.702;23.314;2024-01-30T04:14:21;6.00;;;3.42;;
20910;SDS011;10615;42.702;23.314;2024-01-30T04:15:21;6.25;;;3.78;;
20910;SDS011;10615;42.702;23.314;2024-01-30T04:16:22;4.93;;;3.35;;
20910;SDS011;10615;42.702;23.314;2024-01-30T04:17:23;4.80;;;3.40;;
20910;SDS011;10615;42.702;23.314;2024-01-30T04:18:24;4.57;;;3.10;;
20910;SDS011;10615;42.702;23.314;2024-01-30T04:19:25;6.30;;;3.70;;
20910;SDS011;10615;42.702;23.314;2024-01-30T04:20:25;6.40;;;4.00;;
20910;SDS011;10615;42.702;23.314;2024-01-30T04:21:26;9.32;;;3.60;;
20910;SDS011;10615;42.702;23.314;2024-01-30T04:22:27;6.10;;;3.72;;
20910;SDS011;10615;42.702;23.314;2024-01-30T04:23:28;6.55;;;3.58;;
20910;SDS011;10615;42.702;23.314;2024-01-30T04:24:28;6.63;;;4.22;;
20910;SDS011;10615;42.702;23.314;2024-01-30T04:25:29;8.65;;;3.55;;
20910;SDS011;10615;42.702;23.314;2024-01-30T04:26:30;5.70;;;3.90;;
20910;SDS011;10615;42.702;23.314;2024-01-30T04:27:30;5.88;;;4.00;;
20910;SDS011;10615;42.702;23.314;2024-01-30T04:28:31;8.07;;;4.20;;
20910;SDS011;10615;42.702;23.314;2024-01-30T04:29:32;6.97;;;4.03;;
20910;SDS011;10615;42.702;23.314;2024-01-30T04:30:33;7.68;;;3.88;;
20910;SDS011;10615;42.702;23.314;2024-01-30T04:31:35;9.43;;;4.50;;
20910;SDS011;10615;42.702;23.314;2024-01-30T04:32:37;6.93;;;4.57;;
20910;SDS011;10615;42.702;23.314;2024-01-30T04:33:37;7.13;;;4.45;;
20910;SDS011;10615;42.702;23.314;2024-01-30T04:34:38;9.88;;;5.55;;
20910;SDS011;10615;42.702;23.314;2024-01-30T04:35:39;7.45;;;4.72;;
20910;SDS011;10615;42.702;23.314;2024-01-30T04:36:40;9.63;;;4.15;;
20910;SDS011;10615;42.702;23.314;2024-01-30T04:37:45;12.40;;;5.07;;
20910;SDS011;10615;42.702;23.314;2024-01-30T04:38:46;9.30;;;5.22;;
20910;SDS011;10615;42.702;23.314;2024-01-30T04:39:47;8.45;;;5.10;;
20910;SDS011;10615;42.702;23.314;2024-01-30T04:40:47;9.77;;;5.10;;
20910;SDS011;10615;42.702;23.314;2024-01-30T04:41:48;7.20;;;4.80;;
20910;SDS011;10615;42.702;23.314;2024-01-30T04:42:49;9.55;;;4.90;;
20910;SDS011;10615;42.702;23.314;2024-01-30T04:43:50;9.75;;;4.70;;
20910;SDS011;10615;42.702;23.314;2024-01-30T04:44:50;10.88;;;5.18;;
20910;SDS011;10615;42.702;23.314;2024-01-30T04:45:51;9.02;;;4.55;;
20910;SDS011;10615;42.702;23.314;2024-01-30T04:46:52;8.30;;;4.60;;
20910;SDS011;10615;42.702;23.314;2024-01-30T04:47:52;6.35;;;4.30;;
20910;SDS011;10615;42.702;23.314;2024-01-30T04:48:53;6.40;;;4.18;;
20910;SDS011;10615;42.702;23.314;2024-01-30T04:49:54;9.80;;;4.13;;
20910;SDS011;10615;42.702;23.314;2024-01-30T04:50:55;6.15;;;3.80;;
20910;SDS011;10615;42.702;23.314;2024-01-30T04:51:56;8.48;;;4.15;;
20910;SDS011;10615;42.702;23.314;2024-01-30T04:52:57;7.00;;;4.07;;
20910;SDS011;10615;42.702;23.314;2024-01-30T04:53:58;7.88;;;4.22;;
20910;SDS011;10615;42.702;23.314;2024-01-30T04:54:59;6.75;;;3.63;;
20910;SDS011;10615;42.702;23.314;2024-01-30T04:56:00;8.27;;;4.25;;
20910;SDS011;10615;42.702;23.314;2024-01-30T04:57:01;9.43;;;3.67;;
20910;SDS011;10615;42.702;23.314;2024-01-30T04:58:02;8.18;;;3.63;;
20910;SDS011;10615;42.702;23.314;2024-01-30T04:59:03;5.82;;;3.80;;
20910;SDS011;10615;42.702;23.314;2024-01-30T05:00:04;9.35;;;4.30;;
20910;SDS011;10615;42.702;23.314;2024-01-30T05:01:05;5.95;;;3.92;;
20910;SDS011;10615;42.702;23.314;2024-01-30T05:02:06;6.38;;;3.95;;
20910;SDS011;10615;42.702;23.314;2024-01-30T05:03:07;6.70;;;4.32;;
20910;SDS011;10615;42.702;23.314;2024-01-30T05:04:08;6.50;;;3.80;;
20910;SDS011;10615;42.702;23.314;2024-01-30T05:05:09;6.75;;;4.03;;
20910;SDS011;10615;42.702;23.314;2024-01-30T05:06:10;6.43;;;4.47;;
20910;SDS011;10615;42.702;23.314;2024-01-30T05:07:11;7.70;;;4.18;;
20910;SDS011;10615;42.702;23.314;2024-01-30T05:08:12;6.15;;;3.92;;
20910;SDS011;10615;42.702;23.314;2024-01-30T05:09:12;8.85;;;4.45;;
20910;SDS011;10615;42.702;23.314;2024-01-30T05:10:13;7.20;;;4.13;;
20910;SDS011;10615;42.702;23.314;2024-01-30T05:11:14;6.18;;;4.25;;
20910;SDS011;10615;42.702;23.314;2024-01-30T05:12:15;6.97;;;4.35;;
20910;SDS011;10615;42.702;23.314;2024-01-30T05:13:15;6.95;;;4.40;;
20910;SDS011;10615;42.702;23.314;2024-01-30T05:14:16;9.35;;;5.22;;
20910;SDS011;10615;42.702;23.314;2024-01-30T05:15:18;9.57;;;4.97;;
20910;SDS011;10615;42.702;23.314;2024-01-30T05:16:19;10.27;;;5.72;;
20910;SDS011;10615;42.702;23.314;2024-01-30T05:17:20;7.68;;;4.75;;
20910;SDS011;10615;42.702;23.314;2024-01-30T05:18:21;8.38;;;5.38;;
20910;SDS011;10615;42.702;23.314;2024-01-30T05:19:21;10.48;;;5.30;;
20910;SDS011;10615;42.702;23.314;2024-01-30T05:20:23;10.30;;;5.47;;
20910;SDS011;10615;42.702;23.314;2024-01-30T05:21:24;10.32;;;5.53;;
20910;SDS011;10615;42.702;23.314;2024-01-30T05:22:25;10.88;;;5.45;;
20910;SDS011;10615;42.702;23.314;2024-01-30T05:23:25;9.00;;;5.18;;
20910;SDS011;10615;42.702;23.314;2024-01-30T05:24:26;9.13;;;5.78;;
20910;SDS011;10615;42.702;23.314;2024-01-30T05:25:27;12.43;;;5.90;;
20910;SDS011;10615;42.702;23.314;2024-01-30T05:26:27;9.35;;;5.63;;
20910;SDS011;10615;42.702;23.314;2024-01-30T05:27:28;10.70;;;5.93;;
20910;SDS011;10615;42.702;23.314;2024-01-30T05:28:29;7.35;;;5.22;;
20910;SDS011;10615;42.702;23.314;2024-01-30T05:29:30;15.68;;;5.70;;
20910;SDS011;10615;42.702;23.314;2024-01-30T05:30:31;10.23;;;5.57;;
20910;SDS011;10615;42.702;23.314;2024-01-30T05:31:31;9.57;;;5.60;;
20910;SDS011;10615;42.702;23.314;2024-01-30T05:32:32;9.10;;;5.60;;
20910;SDS011;10615;42.702;23.314;2024-01-30T05:33:33;10.75;;;5.97;;
20910;SDS011;10615;42.702;23.314;2024-01-30T05:34:35;10.85;;;6.15;;
20910;SDS011;10615;42.702;23.314;2024-01-30T05:35:35;9.40;;;4.70;;
20910;SDS011;10615;42.702;23.314;2024-01-30T05:36:36;9.05;;;5.15;;
20910;SDS011;10615;42.702;23.314;2024-01-30T05:37:37;8.13;;;5.20;;
20910;SDS011;10615;42.702;23.314;2024-01-30T05:38:38;9.10;;;5.10;;
20910;SDS011;10615;42.702;23.314;2024-01-30T05:39:39;10.98;;;4.85;;
20910;SDS011;10615;42.702;23.314;2024-01-30T05:40:39;9.77;;;5.60;;
20910;SDS011;10615;42.702;23.314;2024-01-30T05:41:40;9.85;;;5.95;;
20910;SDS011;10615;42.702;23.314;2024-01-30T05:42:41;13.10;;;5.95;;
20910;SDS011;10615;42.702;23.314;2024-01-30T05:43:41;9.63;;;5.13;;
20910;SDS011;10615;42.702;23.314;2024-01-30T05:44:42;8.68;;;5.80;;
20910;SDS011;10615;42.702;23.314;2024-01-30T05:45:43;10.13;;;5.30;;
20910;SDS011;10615;42.702;23.314;2024-01-30T05:46:44;9.80;;;5.75;;
20910;SDS011;10615;42.702;23.314;2024-01-30T05:47:45;12.15;;;5.28;;
20910;SDS011;10615;42.702;23.314;2024-01-30T05:48:45;11.93;;;6.25;;
20910;SDS011;10615;42.702;23.314;2024-01-30T05:49:46;13.40;;;7.28;;
20910;SDS011;10615;42.702;23.314;2024-01-30T05:50:47;13.00;;;6.97;;
20910;SDS011;10615;42.702;23.314;2024-01-30T05:51:48;13.30;;;6.28;;
20910;SDS011;10615;42.702;23.314;2024-01-30T05:52:48;14.40;;;7.72;;
20910;SDS011;10615;42.702;23.314;2024-01-30T05:53:49;14.18;;;6.78;;
20910;SDS011;10615;42.702;23.314;2024-01-30T05:54:50;11.85;;;6.78;;
20910;SDS011;10615;42.702;23.314;2024-01-30T05:55:51;10.52;;;5.60;;
20910;SDS011;10615;42.702;23.314;2024-01-30T05:56:52;10.60;;;6.03;;
20910;SDS011;10615;42.702;23.314;2024-01-30T05:57:52;9.00;;;5.53;;
20910;SDS011;10615;42.702;23.314;2024-01-30T05:58:53;9.48;;;5.18;;
20910;SDS011;10615;42.702;23.314;2024-01-30T05:59:54;8.18;;;4.95;;
20910;SDS011;10615;42.702;23.314;2024-01-30T06:00:55;9.23;;;4.78;;
20910;SDS011;10615;42.702;23.314;2024-01-30T06:01:55;8.25;;;4.60;;